Ames, Oklahoma
Current Conditions -  °F | °C
As of 11:58 PM on Sunday 23 Nov 2014 (Local Time) from KEND Reporting Station
Clear Clear  
Wind Chill:   Ceiling: Unl
Heat Index:   Visibility: 10mi
Dew Point: -1°   Wind: 15mph
Humidity: 71%   Direction: 300°WNW
Pressure: 29.76"   Gusts: NA
Location:  36.25°N, 98.19°W
Report Text: KEND 240558Z AUTO 30013KT 10SM CLR 04/00 A2976 RMK AO2 SLP081 60003 T00431005 10063 20035 52026 $
Loading
Personal Weather Stations






























Interactive Weather Map New forecast layout! Learn more

10-Day Weather Forecast

Advertisements
Track Severe Weather on mobile